createdAt,value
2019-04-14T00:01:15.116Z,2.34
2019-04-14T00:04:29.063Z,2.42
2019-04-14T00:07:36.313Z,2.39
2019-04-14T00:10:42.632Z,2.45
2019-04-14T00:13:50.130Z,2.45
2019-04-14T00:16:57.796Z,2.34
2019-04-14T00:20:05.364Z,2.35
2019-04-14T00:23:12.995Z,2.32
2019-04-14T00:26:31.560Z,2.34
2019-04-14T00:29:39.202Z,2.37
2019-04-14T00:32:50.943Z,2.28
2019-04-14T00:36:10.924Z,2.28
2019-04-14T00:39:31.536Z,2.26
2019-04-14T00:43:07.489Z,2.23
2019-04-14T00:46:19.004Z,2.30
2019-04-14T00:49:26.765Z,2.35
2019-04-14T00:52:34.052Z,2.26
2019-04-14T00:55:40.527Z,2.21
2019-04-14T00:58:47.535Z,2.11
2019-04-14T01:01:54.794Z,2.15
2019-04-14T01:05:02.532Z,2.19
2019-04-14T01:08:09.673Z,2.10
2019-04-14T01:11:16.395Z,2.11
2019-04-14T01:14:23.306Z,2.15
2019-04-14T01:17:30.907Z,2.13
2019-04-14T01:20:38.531Z,2.01
2019-04-14T01:23:45.537Z,2.12
2019-04-14T01:26:52.866Z,2.12
2019-04-14T01:30:00.353Z,2.10
2019-04-14T01:33:07.614Z,2.07
2019-04-14T01:36:14.851Z,2.06
2019-04-14T01:39:22.174Z,2.01
2019-04-14T01:42:28.898Z,2.03
2019-04-14T01:45:35.921Z,2.07
2019-04-14T01:48:43.198Z,2.09
2019-04-14T01:52:08.186Z,2.05
2019-04-14T01:55:22.311Z,2.08
2019-04-14T01:58:33.903Z,2.07
2019-04-14T02:01:41.144Z,2.10
2019-04-14T02:04:48.522Z,2.10
2019-04-14T02:07:55.867Z,2.07
2019-04-14T02:11:02.995Z,2.10
2019-04-14T02:14:10.422Z,2.09
2019-04-14T02:17:17.760Z,2.12
2019-04-14T02:20:25.069Z,2.11
2019-04-14T02:23:32.279Z,2.07
2019-04-14T02:26:39.914Z,1.89
2019-04-14T02:29:47.242Z,1.91
2019-04-14T02:33:26.039Z,1.88
2019-04-14T02:36:36.369Z,2.02
2019-04-14T02:39:39.114Z,1.89
2019-04-14T02:42:56.396Z,1.95
2019-04-14T02:45:57.904Z,2.00
2019-04-14T02:48:58.426Z,2.00
2019-04-14T02:52:12.368Z,1.81
2019-04-14T02:55:32.415Z,1.88
2019-04-14T02:58:28.482Z,1.85
2019-04-14T03:01:50.774Z,1.71
2019-04-14T03:04:45.325Z,1.85
2019-04-14T03:07:54.439Z,1.89
2019-04-14T03:14:06.332Z,1.83
2019-04-14T03:21:04.003Z,1.84
2019-04-14T03:24:31.751Z,1.63
2019-04-14T03:27:49.970Z,1.77
2019-04-14T03:34:21.180Z,1.73
2019-04-14T03:37:40.659Z,1.73
2019-04-14T03:40:28.142Z,1.81
2019-04-14T03:43:31.015Z,1.85
2019-04-14T03:46:41.464Z,1.78
2019-04-14T03:49:45.238Z,1.86
2019-04-14T03:52:55.771Z,1.55
2019-04-14T03:56:17.648Z,1.75
2019-04-14T03:59:24.011Z,1.75
2019-04-14T04:02:31.529Z,1.83
2019-04-14T04:05:39.188Z,1.75
2019-04-14T04:08:46.467Z,1.79
2019-04-14T04:11:54.040Z,1.80
2019-04-14T04:15:01.844Z,1.85
2019-04-14T04:18:21.911Z,1.83
2019-04-14T04:21:50.939Z,1.76
2019-04-14T04:25:02.966Z,1.77
2019-04-14T04:28:27.865Z,1.89
2019-04-14T04:31:44.318Z,1.84
2019-04-14T04:35:10.722Z,1.84
2019-04-14T04:38:39.866Z,1.93
2019-04-14T04:41:47.255Z,1.96
2019-04-14T04:44:53.718Z,1.99
2019-04-14T04:48:00.442Z,2.02
2019-04-14T04:51:07.216Z,2.01
2019-04-14T04:54:14.688Z,2.09
2019-04-14T04:57:22.062Z,1.98
2019-04-14T05:00:28.806Z,2.09
2019-04-14T05:03:36.165Z,2.05
2019-04-14T05:07:01.822Z,2.11
2019-04-14T05:10:33.371Z,2.15
2019-04-14T05:13:42.408Z,2.21
2019-04-14T05:16:48.950Z,2.23
2019-04-14T05:19:56.222Z,2.24
2019-04-14T05:23:03.656Z,2.32
2019-04-14T05:26:11.298Z,2.17
2019-04-14T05:29:18.879Z,2.28
2019-04-14T05:32:26.155Z,2.30
2019-04-14T05:35:33.381Z,2.43
2019-04-14T05:38:40.796Z,2.49
2019-04-14T05:41:56.758Z,2.48
2019-04-14T05:44:55.850Z,2.43
2019-04-14T05:48:03.224Z,2.53
2019-04-14T05:51:10.958Z,2.56
2019-04-14T05:54:18.540Z,2.61
2019-04-14T05:57:26.221Z,2.67
2019-04-14T06:00:34.207Z,2.71
2019-04-14T06:03:40.974Z,2.75
2019-04-14T06:06:48.059Z,2.76
2019-04-14T06:09:54.572Z,2.78
2019-04-14T06:13:00.898Z,2.82
2019-04-14T06:16:07.398Z,2.93
2019-04-14T06:19:13.817Z,2.99
2019-04-14T06:22:20.215Z,2.99
2019-04-14T06:25:26.579Z,3.05
2019-04-14T06:28:33.132Z,3.07
2019-04-14T06:31:48.847Z,3.18
2019-04-14T06:35:12.827Z,3.28
2019-04-14T06:38:29.076Z,3.31
2019-04-14T06:41:35.643Z,3.38
2019-04-14T06:44:42.002Z,3.45
2019-04-14T06:47:48.574Z,3.47
2019-04-14T06:50:55.047Z,3.57
2019-04-14T06:54:02.687Z,3.64
2019-04-14T06:57:09.022Z,3.68
2019-04-14T07:00:15.499Z,3.73
2019-04-14T07:03:21.877Z,3.98
2019-04-14T07:06:28.360Z,4.01
2019-04-14T07:09:35.069Z,4.05
2019-04-14T07:12:43.017Z,4.05
2019-04-14T07:15:49.474Z,4.37
2019-04-14T07:18:55.877Z,4.34
2019-04-14T07:22:02.199Z,4.46
2019-04-14T07:25:08.686Z,4.52
2019-04-14T07:28:15.038Z,4.48
2019-04-14T07:31:46.581Z,4.71
2019-04-14T07:35:14.894Z,4.76
2019-04-14T07:38:30.617Z,4.77
2019-04-14T07:41:44.236Z,4.68
2019-04-14T07:45:18.541Z,5.11
2019-04-14T07:48:36.291Z,5.17
2019-04-14T07:52:13.907Z,5.42
2019-04-14T07:55:37.590Z,5.42
2019-04-14T07:59:05.932Z,5.58
2019-04-14T08:02:34.206Z,5.65
2019-04-14T08:05:41.164Z,5.79
2019-04-14T08:08:47.511Z,5.87
2019-04-14T08:11:54.146Z,6.00
2019-04-14T08:15:00.576Z,6.12
2019-04-14T08:18:07.017Z,6.09
2019-04-14T08:21:13.375Z,6.09
2019-04-14T08:24:19.837Z,6.26
2019-04-14T08:27:26.243Z,6.59
2019-04-14T08:30:32.768Z,6.57
2019-04-14T08:33:39.212Z,6.80
2019-04-14T08:36:45.618Z,7.04
2019-04-14T08:39:51.958Z,7.22
2019-04-14T08:43:16.149Z,7.22
2019-04-14T08:46:40.441Z,7.19
2019-04-14T08:50:03.420Z,7.03
2019-04-14T08:53:31.883Z,7.61
2019-04-14T08:57:00.713Z,7.42
2019-04-14T09:00:14.392Z,7.42
2019-04-14T09:03:38.722Z,7.57
2019-04-14T09:06:53.150Z,7.64
2019-04-14T09:10:03.931Z,7.63
2019-04-14T09:13:11.199Z,7.57
2019-04-14T09:16:17.733Z,7.58
2019-04-14T09:19:24.179Z,7.60
2019-04-14T09:22:31.544Z,7.57
2019-04-14T09:25:39.395Z,7.64
2019-04-14T09:28:46.275Z,7.69
2019-04-14T09:31:52.618Z,7.69
2019-04-14T09:34:59.280Z,7.68
2019-04-14T09:38:05.618Z,7.59
2019-04-14T09:41:12.009Z,7.65
2019-04-14T09:44:18.413Z,7.65
2019-04-14T09:47:24.879Z,7.60
2019-04-14T09:50:32.222Z,7.43
2019-04-14T09:53:38.874Z,7.45
2019-04-14T09:56:45.475Z,7.46
2019-04-14T09:59:51.905Z,7.54
2019-04-14T10:02:58.254Z,7.72
2019-04-14T10:06:04.894Z,7.70
2019-04-14T10:09:11.352Z,7.69
2019-04-14T10:12:17.875Z,7.69
2019-04-14T10:15:24.834Z,7.74
2019-04-14T10:18:31.425Z,7.73
2019-04-14T10:21:37.854Z,7.77
2019-04-14T10:24:44.270Z,7.86
2019-04-14T10:27:50.624Z,7.75
2019-04-14T10:30:57.202Z,7.66
2019-04-14T10:34:03.733Z,7.82
2019-04-14T10:37:10.285Z,7.70
2019-04-14T10:40:19.118Z,7.60
2019-04-14T10:43:27.191Z,7.67
2019-04-14T10:46:33.528Z,7.70
2019-04-14T10:49:40.291Z,7.67
2019-04-14T10:52:46.654Z,7.53
2019-04-14T10:55:53.122Z,7.53
2019-04-14T10:58:59.570Z,7.65
2019-04-14T11:02:06.121Z,7.58
2019-04-14T11:05:12.574Z,7.77
2019-04-14T11:08:19.482Z,7.84
2019-04-14T11:11:25.766Z,7.73
2019-04-14T11:14:32.184Z,7.68
2019-04-14T11:17:39.090Z,7.51
2019-04-14T11:20:45.601Z,7.72
2019-04-14T11:23:51.975Z,7.80
2019-04-14T11:26:58.698Z,7.92
2019-04-14T11:30:08.685Z,7.89
2019-04-14T11:33:22.706Z,7.95
2019-04-14T11:36:48.997Z,8.09
2019-04-14T11:39:55.608Z,8.01
2019-04-14T11:43:04.623Z,8.37
2019-04-14T11:46:11.237Z,8.50
2019-04-14T11:49:17.657Z,8.49
2019-04-14T11:52:23.980Z,8.54
2019-04-14T11:55:30.274Z,8.55
2019-04-14T11:58:38.592Z,8.58
2019-04-14T12:01:57.595Z,8.68
2019-04-14T12:05:23.249Z,8.70
2019-04-14T12:08:51.311Z,8.87
2019-04-14T12:11:57.737Z,8.81
2019-04-14T12:15:07.463Z,8.66
2019-04-14T12:18:13.488Z,8.66
2019-04-14T12:21:19.930Z,8.76
2019-04-14T12:24:26.499Z,8.34
2019-04-14T12:27:32.842Z,8.61
2019-04-14T12:30:39.900Z,8.52
2019-04-14T12:33:48.383Z,8.43
2019-04-14T12:36:54.979Z,8.50
2019-04-14T12:40:02.670Z,8.51
2019-04-14T12:43:34.289Z,8.46
2019-04-14T12:47:08.932Z,8.57
2019-04-14T12:50:36.901Z,8.44
2019-04-14T12:53:43.186Z,8.58
2019-04-14T12:56:50.656Z,8.56
2019-04-14T12:59:56.981Z,8.65
2019-04-14T13:03:03.373Z,8.33
2019-04-14T13:06:09.820Z,8.44
2019-04-14T13:09:16.279Z,8.33
2019-04-14T13:12:22.696Z,8.33
2019-04-14T13:15:29.183Z,8.24
2019-04-14T13:18:36.319Z,8.40
2019-04-14T13:21:42.882Z,8.62
2019-04-14T13:24:49.217Z,8.62
2019-04-14T13:27:55.674Z,8.76
2019-04-14T13:31:02.012Z,9.00
2019-04-14T13:34:08.628Z,9.16
2019-04-14T13:37:14.925Z,9.24
2019-04-14T13:40:21.622Z,9.30
2019-04-14T13:43:27.982Z,9.29
2019-04-14T13:46:34.465Z,9.38
2019-04-14T13:49:40.910Z,9.42
2019-04-14T13:52:47.802Z,9.38
2019-04-14T13:55:54.075Z,9.42
2019-04-14T13:59:00.556Z,9.36
2019-04-14T14:02:07.145Z,9.32
2019-04-14T14:05:13.875Z,9.35
2019-04-14T14:08:20.245Z,9.04
2019-04-14T14:11:38.537Z,9.07
2019-04-14T14:15:06.689Z,9.04
2019-04-14T14:18:47.291Z,9.04
2019-04-14T14:22:13.037Z,9.04
2019-04-14T14:25:24.509Z,8.98
2019-04-14T14:28:30.917Z,9.16
2019-04-14T14:31:37.390Z,9.00
2019-04-14T14:34:43.813Z,9.17
2019-04-14T14:37:50.145Z,8.83
2019-04-14T14:40:58.482Z,8.97
2019-04-14T14:44:04.938Z,8.92
2019-04-14T14:47:15.843Z,8.94
2019-04-14T14:50:44.092Z,9.11
2019-04-14T14:53:50.566Z,9.17
2019-04-14T14:56:57.033Z,9.10
2019-04-14T15:00:03.495Z,9.14
2019-04-14T15:03:09.995Z,9.21
2019-04-14T15:06:16.444Z,9.38
2019-04-14T15:09:22.862Z,9.35
2019-04-14T15:12:29.205Z,9.39
2019-04-14T15:15:35.547Z,9.60
2019-04-14T15:18:41.870Z,9.53
2019-04-14T15:21:48.273Z,9.16
2019-04-14T15:24:54.735Z,9.00
2019-04-14T15:28:01.093Z,8.69
2019-04-14T15:31:07.664Z,9.06
2019-04-14T15:34:14.104Z,9.24
2019-04-14T15:37:20.436Z,9.22
2019-04-14T15:40:26.838Z,9.32
2019-04-14T15:43:33.615Z,9.39
2019-04-14T15:46:40.174Z,9.14
2019-04-14T15:49:46.518Z,9.14
2019-04-14T15:52:52.986Z,9.23
2019-04-14T15:55:59.766Z,9.40
2019-04-14T15:59:11.163Z,9.33
2019-04-14T16:02:26.881Z,9.13
2019-04-14T16:05:41.551Z,9.34
2019-04-14T16:08:55.507Z,8.96
2019-04-14T16:12:08.561Z,9.03
2019-04-14T16:15:36.689Z,8.81
2019-04-14T16:19:05.177Z,8.93
2019-04-14T16:22:12.757Z,8.68
2019-04-14T16:25:20.791Z,8.64
2019-04-14T16:28:49.309Z,7.99
2019-04-14T16:32:07.361Z,8.19
2019-04-14T16:35:20.773Z,8.33
2019-04-14T16:38:27.210Z,8.39
2019-04-14T16:41:33.507Z,8.03
2019-04-14T16:44:40.352Z,7.93
2019-04-14T16:47:46.773Z,7.69
2019-04-14T16:50:53.295Z,7.81
2019-04-14T16:54:03.742Z,7.80
2019-04-14T16:57:28.752Z,7.50
2019-04-14T17:00:37.815Z,7.29
2019-04-14T17:03:44.360Z,6.93
2019-04-14T17:06:50.694Z,7.11
2019-04-14T17:09:57.072Z,7.10
2019-04-14T17:13:03.565Z,6.99
2019-04-14T17:16:35.160Z,6.63
2019-04-14T17:20:06.422Z,6.75
2019-04-14T17:23:31.153Z,6.56
2019-04-14T17:26:47.527Z,6.15
2019-04-14T17:30:02.334Z,6.24
2019-04-14T17:33:21.010Z,5.83
2019-04-14T17:36:44.225Z,5.94
2019-04-14T17:40:06.255Z,5.76
2019-04-14T17:43:28.347Z,5.93
2019-04-14T17:46:52.863Z,5.92
2019-04-14T17:50:12.156Z,5.73
2019-04-14T17:53:25.585Z,5.61
2019-04-14T17:56:50.434Z,5.66
2019-04-14T18:00:27.879Z,5.58
2019-04-14T18:03:43.534Z,5.52
2019-04-14T18:06:51.972Z,5.42
2019-04-14T18:10:20.742Z,5.37
2019-04-14T18:13:37.291Z,5.40
2019-04-14T18:17:04.061Z,5.34
2019-04-14T18:20:20.240Z,5.02
2019-04-14T18:23:27.531Z,4.95
2019-04-14T18:26:34.509Z,4.95
2019-04-14T18:29:47.054Z,4.84
2019-04-14T18:33:08.394Z,4.88
2019-04-14T18:36:36.812Z,4.94
2019-04-14T18:39:52.729Z,4.82
2019-04-14T18:43:10.226Z,4.88
2019-04-14T18:46:35.275Z,4.82
2019-04-14T18:49:52.456Z,4.90
2019-04-14T18:53:06.245Z,4.82
2019-04-14T18:56:24.931Z,4.76
2019-04-14T18:59:38.641Z,4.56
2019-04-14T19:02:45.036Z,4.54
2019-04-14T19:05:51.466Z,4.26
2019-04-14T19:08:59.058Z,4.09
2019-04-14T19:12:23.336Z,3.97
2019-04-14T19:15:42.826Z,4.01
2019-04-14T19:18:51.756Z,3.85
2019-04-14T19:21:58.393Z,3.63
2019-04-14T19:25:08.449Z,3.59
2019-04-14T19:28:12.901Z,3.80
2019-04-14T19:31:19.727Z,3.49
2019-04-14T19:34:26.153Z,3.56
2019-04-14T19:37:32.490Z,3.63
2019-04-14T19:40:40.184Z,3.39
2019-04-14T19:43:46.621Z,3.23
2019-04-14T19:46:52.956Z,3.42
2019-04-14T19:49:59.504Z,3.29
2019-04-14T19:53:05.974Z,3.30
2019-04-14T19:56:13.549Z,3.28
2019-04-14T19:59:20.468Z,3.34
2019-04-14T20:02:27.838Z,3.35
2019-04-14T20:05:34.261Z,3.04
2019-04-14T20:08:40.567Z,2.92
2019-04-14T20:11:47.161Z,2.72
2019-04-14T20:14:53.466Z,2.73
2019-04-14T20:18:17.264Z,2.59
2019-04-14T20:21:48.586Z,2.82
2019-04-14T20:24:59.241Z,2.74
2019-04-14T20:28:09.641Z,2.42
2019-04-14T20:31:38.104Z,2.49
2019-04-14T20:34:45.046Z,2.32
2019-04-14T20:37:52.496Z,2.26
2019-04-14T20:40:58.755Z,2.14
2019-04-14T20:44:05.297Z,1.91
2019-04-14T20:47:11.862Z,2.12
2019-04-14T20:50:18.682Z,1.69
2019-04-14T20:53:25.231Z,2.00
2019-04-14T20:56:32.517Z,1.87
2019-04-14T20:59:38.827Z,2.13
2019-04-14T21:03:04.233Z,2.02
2019-04-14T21:06:41.794Z,1.86
2019-04-14T21:09:58.189Z,1.83
2019-04-14T21:13:26.802Z,1.50
2019-04-14T21:16:37.444Z,1.47
2019-04-14T21:20:05.258Z,1.47
2019-04-14T21:23:16.265Z,1.42
2019-04-14T21:26:39.001Z,1.44
2019-04-14T21:30:03.974Z,1.41
2019-04-14T21:33:36.427Z,1.19
2019-04-14T21:36:51.102Z,1.11
2019-04-14T21:40:25.573Z,0.94
2019-04-14T21:43:31.890Z,1.22
2019-04-14T21:46:38.311Z,1.01
2019-04-14T21:49:44.802Z,1.05
2019-04-14T21:52:51.408Z,1.02
2019-04-14T21:55:57.780Z,1.24
2019-04-14T21:59:10.951Z,1.03
2019-04-14T22:02:35.470Z,0.85
2019-04-14T22:05:47.520Z,0.98
2019-04-14T22:08:54.230Z,0.63
2019-04-14T22:12:02.390Z,0.67
2019-04-14T22:15:09.022Z,0.49
2019-04-14T22:18:15.709Z,0.67
2019-04-14T22:21:22.067Z,0.60
2019-04-14T22:24:28.399Z,0.90
2019-04-14T22:27:34.879Z,0.88
2019-04-14T22:30:41.708Z,0.62
2019-04-14T22:33:48.005Z,0.53
2019-04-14T22:36:55.061Z,0.68
2019-04-14T22:40:01.868Z,0.40
2019-04-14T22:43:09.272Z,0.38
2019-04-14T22:46:16.135Z,0.39
2019-04-14T22:49:22.421Z,0.35
2019-04-14T22:52:28.815Z,0.34
2019-04-14T22:55:35.547Z,0.46
2019-04-14T22:58:41.856Z,0.29
2019-04-14T23:01:51.517Z,0.26
2019-04-14T23:05:11.622Z,0.17
2019-04-14T23:08:44.287Z,0.09
2019-04-14T23:11:57.842Z,0.26
2019-04-14T23:15:29.868Z,0.11
2019-04-14T23:19:04.680Z,0.30
2019-04-14T23:22:23.178Z,0.03
2019-04-14T23:25:29.715Z,-0.09
2019-04-14T23:28:36.046Z,0.11
2019-04-14T23:31:42.411Z,0.17
2019-04-14T23:34:48.757Z,0.16
2019-04-14T23:37:55.804Z,0.23
2019-04-14T23:41:03.142Z,0.23
2019-04-14T23:44:09.932Z,0.12
2019-04-14T23:47:16.338Z,0.05
2019-04-14T23:50:22.778Z,0.08
2019-04-14T23:53:29.103Z,0.09
2019-04-14T23:56:36.246Z,-0.10
2019-04-14T23:59:42.573Z,0.03
